Time;durP1;ratioP1;P1;durP2;ratioP2;P2;SDS_P1;SDS_P2;PMS_P1;PMS_P2;Temp;Humidity;BMP_temperature;BMP_pressure;BME280_temperature;BME280_humidity;BME280_pressure;Samples;Min_cycle;Max_cycle;Signal;HPM_P1;HPM_P2
2021/07/01 00:00:47;;;;;;;0.60;0.60;;;12.50;99.90;;;;;;5034305;28;20462;-83
2021/07/01 00:03:14;;;;;;;0.50;0.40;;;12.40;99.90;;;;;;5033975;28;20961;-82
2021/07/01 00:05:42;;;;;;;0.50;0.40;;;12.40;99.90;;;;;;5034155;28;20453;-82
2021/07/01 00:08:08;;;;;;;0.57;0.57;;;12.30;99.90;;;;;;5034044;28;20509;-82
2021/07/01 00:10:35;;;;;;;0.50;0.50;;;12.40;99.90;;;;;;5034589;28;20450;-82
2021/07/01 00:13:04;;;;;;;0.50;0.50;;;12.40;99.90;;;;;;5033960;28;20532;-82
2021/07/01 00:15:33;;;;;;;0.50;0.50;;;12.40;99.90;;;;;;5033966;28;20458;-81
2021/07/01 00:18:01;;;;;;;0.50;0.50;;;12.40;99.90;;;;;;5033889;28;20822;-82
2021/07/01 00:20:28;;;;;;;0.90;0.57;;;12.40;99.90;;;;;;5033597;28;20942;-82
2021/07/01 00:22:55;;;;;;;0.70;0.50;;;12.40;99.90;;;;;;5033836;28;20454;-82
2021/07/01 00:25:22;;;;;;;1.33;0.53;;;12.40;99.90;;;;;;5033335;28;20470;-82
2021/07/01 00:27:49;;;;;;;0.70;0.50;;;12.40;99.90;;;;;;5033986;28;20462;-82
2021/07/01 00:30:19;;;;;;;1.83;0.63;;;12.40;99.90;;;;;;5033754;28;20447;-82
2021/07/01 00:32:47;;;;;;;0.63;0.50;;;12.50;99.90;;;;;;5033891;28;20442;-82
2021/07/01 00:35:14;;;;;;;0.40;0.40;;;12.40;99.90;;;;;;5033705;28;20458;-82
2021/07/01 00:37:41;;;;;;;0.50;0.50;;;12.40;99.90;;;;;;5033605;28;20478;-82
2021/07/01 00:40:10;;;;;;;1.17;0.50;;;12.50;99.90;;;;;;5033871;28;20450;-82
2021/07/01 00:42:37;;;;;;;1.87;0.40;;;12.40;99.90;;;;;;5033561;28;20845;-82
2021/07/01 00:45:05;;;;;;;0.50;0.50;;;12.30;99.90;;;;;;5033272;28;20478;-82
2021/07/01 00:47:34;;;;;;;3.53;0.43;;;12.40;99.90;;;;;;5033464;28;20478;-82
2021/07/01 00:50:05;;;;;;;1.23;0.50;;;12.40;99.90;;;;;;5033770;28;20450;-82
2021/07/01 00:52:32;;;;;;;0.50;0.40;;;12.30;99.90;;;;;;5033484;28;20457;-82
2021/07/01 00:54:58;;;;;;;0.40;0.40;;;12.40;99.90;;;;;;5033227;28;20844;-82
2021/07/01 00:57:25;;;;;;;0.50;0.40;;;12.40;99.90;;;;;;5032974;28;20844;-82
2021/07/01 00:59:52;;;;;;;0.40;0.40;;;12.40;99.90;;;;;;5033364;28;20512;-82
2021/07/01 01:02:19;;;;;;;1.20;0.50;;;12.40;99.90;;;;;;5033051;28;20962;-82
2021/07/01 01:04:47;;;;;;;1.33;0.50;;;12.50;99.90;;;;;;5033302;28;20446;-82
2021/07/01 01:07:13;;;;;;;0.70;0.40;;;12.50;99.90;;;;;;5032894;28;20973;-82
2021/07/01 01:09:40;;;;;;;0.50;0.40;;;12.50;99.90;;;;;;5033267;28;20447;-82
2021/07/01 01:12:08;;;;;;;0.40;0.40;;;12.50;99.90;;;;;;5033481;28;20443;-82
2021/07/01 01:14:35;;;;;;;0.40;0.40;;;12.50;99.90;;;;;;5032786;28;20825;-82
2021/07/01 01:17:02;;;;;;;0.50;0.50;;;12.50;99.90;;;;;;5033140;28;20477;-82
2021/07/01 01:19:29;;;;;;;0.40;0.40;;;12.50;99.90;;;;;;5033166;28;20454;-82
2021/07/01 01:21:57;;;;;;;0.50;0.40;;;12.50;99.90;;;;;;5033426;28;20451;-82
2021/07/01 01:24:24;;;;;;;0.43;0.40;;;12.50;99.90;;;;;;5033139;28;20443;-82
2021/07/01 01:26:51;;;;;;;0.53;0.50;;;12.50;99.90;;;;;;5033088;28;20439;-82
2021/07/01 01:29:21;;;;;;;0.50;0.50;;;12.50;99.90;;;;;;5033106;28;20504;-82
2021/07/01 01:31:47;;;;;;;0.50;0.50;;;12.40;99.90;;;;;;5033234;28;20446;-82
2021/07/01 01:34:17;;;;;;;0.43;0.40;;;12.50;99.90;;;;;;5032965;28;20478;-82
2021/07/01 01:36:44;;;;;;;0.70;0.50;;;12.40;99.90;;;;;;5036362;28;20481;-82
2021/07/01 01:39:12;;;;;;;0.40;0.40;;;12.50;99.90;;;;;;5036639;28;20941;-82
2021/07/01 01:41:39;;;;;;;0.50;0.40;;;12.50;99.90;;;;;;5036873;28;20447;-82
2021/07/01 01:44:06;;;;;;;0.40;0.40;;;12.60;99.90;;;;;;5036860;28;20438;-82
2021/07/01 01:46:35;;;;;;;0.50;0.50;;;12.60;99.90;;;;;;5036291;28;20486;-82
2021/07/01 01:49:02;;;;;;;0.50;0.40;;;12.60;99.90;;;;;;5036670;28;20470;-82
2021/07/01 01:51:29;;;;;;;0.50;0.47;;;12.50;99.90;;;;;;5036399;28;21017;-82
2021/07/01 01:53:55;;;;;;;0.83;0.50;;;12.50;99.90;;;;;;5036566;28;20497;-82
2021/07/01 01:56:23;;;;;;;0.40;0.40;;;12.50;99.90;;;;;;5036541;28;21131;-82
2021/07/01 01:58:50;;;;;;;0.60;0.40;;;12.50;99.90;;;;;;5036237;28;20466;-82
2021/07/01 02:01:17;;;;;;;0.40;0.40;;;12.50;99.90;;;;;;5036517;28;20458;-82
2021/07/01 02:03:44;;;;;;;0.50;0.40;;;12.50;99.90;;;;;;5036441;28;20451;-82
2021/07/01 02:06:11;;;;;;;0.40;0.40;;;12.60;99.90;;;;;;5036135;28;20443;-82
2021/07/01 02:08:38;;;;;;;0.40;0.40;;;12.60;99.90;;;;;;5036294;28;20475;-82
2021/07/01 02:11:05;;;;;;;0.60;0.50;;;12.60;99.90;;;;;;5036024;28;20824;-82
2021/07/01 02:13:33;;;;;;;0.50;0.50;;;12.50;99.90;;;;;;5035888;28;20823;-82
2021/07/01 02:16:00;;;;;;;0.40;0.40;;;12.60;99.90;;;;;;5036262;28;20449;-82
2021/07/01 02:18:27;;;;;;;0.40;0.40;;;12.60;99.90;;;;;;5035896;28;20484;-82
2021/07/01 02:20:54;;;;;;;0.40;0.40;;;12.60;99.90;;;;;;5036131;28;20460;-82
2021/07/01 02:23:20;;;;;;;1.33;0.40;;;12.60;99.90;;;;;;5036100;28;20446;-82
2021/07/01 02:25:48;;;;;;;1.50;0.50;;;12.50;99.90;;;;;;5036082;28;20462;-82
2021/07/01 02:28:14;;;;;;;0.40;0.40;;;12.60;99.90;;;;;;5035983;28;20470;-82
2021/07/01 02:30:42;;;;;;;0.40;0.40;;;12.70;99.90;;;;;;5036257;28;20454;-82
2021/07/01 02:33:09;;;;;;;0.40;0.40;;;12.60;99.90;;;;;;5035874;28;20451;-82
2021/07/01 02:35:36;;;;;;;0.50;0.40;;;12.70;99.90;;;;;;5035916;28;20447;-82
2021/07/01 02:38:03;;;;;;;0.50;0.50;;;12.70;99.90;;;;;;5035960;28;20471;-82
2021/07/01 02:40:30;;;;;;;0.50;0.40;;;12.70;99.90;;;;;;5035836;28;20447;-82
2021/07/01 02:42:57;;;;;;;0.63;0.50;;;12.70;99.90;;;;;;5035779;28;20471;-82
2021/07/01 02:45:24;;;;;;;0.60;0.60;;;12.70;99.90;;;;;;5035450;28;20474;-81
2021/07/01 02:47:52;;;;;;;0.43;0.40;;;12.70;99.90;;;;;;5034774;28;20493;-81
2021/07/01 02:50:19;;;;;;;0.97;0.50;;;12.70;99.90;;;;;;5035633;28;20812;-82
2021/07/01 02:52:45;;;;;;;1.43;0.60;;;12.70;99.90;;;;;;5035579;28;20450;-82
2021/07/01 02:55:12;;;;;;;0.50;0.50;;;12.70;99.90;;;;;;5035515;28;20509;-81
2021/07/01 02:57:39;;;;;;;0.90;0.70;;;12.70;99.90;;;;;;5035414;28;20471;-81
2021/07/01 03:00:08;;;;;;;0.50;0.50;;;12.80;99.90;;;;;;5035162;28;20450;-81
2021/07/01 03:02:35;;;;;;;1.27;0.50;;;12.80;99.90;;;;;;5035404;28;20450;-82
2021/07/01 03:05:04;;;;;;;1.37;0.40;;;12.70;99.90;;;;;;5035354;28;20450;-81
2021/07/01 03:07:31;;;;;;;0.80;0.60;;;12.60;99.90;;;;;;5035215;28;20475;-81
2021/07/01 03:09:58;;;;;;;1.93;0.60;;;12.70;99.90;;;;;;5034940;28;20449;-82
2021/07/01 03:12:25;;;;;;;1.80;0.70;;;12.70;99.90;;;;;;5035196;28;20447;-81
2021/07/01 03:14:52;;;;;;;0.57;0.57;;;12.70;99.90;;;;;;5035380;28;20481;-81
2021/07/01 03:17:19;;;;;;;0.57;0.57;;;12.80;99.90;;;;;;5035049;28;20471;-82
2021/07/01 03:19:46;;;;;;;0.50;0.50;;;12.80;99.90;;;;;;5035052;28;20479;-82
2021/07/01 03:22:14;;;;;;;0.57;0.57;;;12.80;99.90;;;;;;5035027;28;20439;-81
2021/07/01 03:24:41;;;;;;;5.90;0.57;;;12.80;99.90;;;;;;5034958;28;20453;-81
2021/07/01 03:27:08;;;;;;;0.60;0.50;;;12.80;99.90;;;;;;5034534;28;21000;-81
2021/07/01 03:29:34;;;;;;;1.00;0.70;;;12.80;99.90;;;;;;5034865;28;20450;-81
2021/07/01 03:32:01;;;;;;;0.60;0.60;;;12.80;99.90;;;;;;5034524;28;20455;-81
2021/07/01 03:34:28;;;;;;;0.70;0.60;;;12.80;99.90;;;;;;5034459;28;20482;-81
2021/07/01 03:36:55;;;;;;;0.87;0.70;;;12.80;99.90;;;;;;5034641;28;20447;-81
2021/07/01 03:39:23;;;;;;;0.50;0.50;;;12.80;99.90;;;;;;5034367;28;20934;-81
2021/07/01 03:41:49;;;;;;;2.53;0.80;;;12.80;99.90;;;;;;5034519;28;20443;-81
2021/07/01 03:44:17;;;;;;;0.57;0.57;;;12.90;99.90;;;;;;5034259;28;20451;-81
2021/07/01 03:46:44;;;;;;;0.50;0.50;;;12.80;99.90;;;;;;5034020;28;20892;-81
2021/07/01 03:49:12;;;;;;;0.70;0.60;;;12.80;99.90;;;;;;5034496;28;20454;-81
2021/07/01 03:51:39;;;;;;;1.23;0.50;;;12.80;99.90;;;;;;5034672;28;20454;-81
2021/07/01 03:54:06;;;;;;;0.63;0.60;;;12.90;99.90;;;;;;5034016;28;20485;-81
2021/07/01 03:56:41;;;;;;;0.80;0.80;;;12.80;99.90;;;;;;5034370;28;20457;-81
2021/07/01 03:59:10;;;;;;;0.60;0.60;;;12.80;99.90;;;;;;5034198;28;20836;-80
2021/07/01 04:01:36;;;;;;;0.60;0.50;;;12.80;99.90;;;;;;5033946;28;20504;-81
2021/07/01 04:04:03;;;;;;;0.80;0.80;;;12.80;99.90;;;;;;5034466;28;20438;-81
2021/07/01 04:06:30;;;;;;;1.00;0.70;;;12.90;99.90;;;;;;5034179;28;20458;-81
2021/07/01 04:08:57;;;;;;;0.80;0.70;;;12.90;99.90;;;;;;5034245;28;20463;-80
2021/07/01 04:11:25;;;;;;;0.70;0.70;;;12.90;99.90;;;;;;5034057;28;20462;-81
2021/07/01 04:13:53;;;;;;;0.70;0.70;;;13.00;99.90;;;;;;5034227;28;20814;-81
2021/07/01 04:16:20;;;;;;;1.73;1.03;;;13.00;99.90;;;;;;5033662;28;20443;-81
2021/07/01 04:18:46;;;;;;;0.83;0.60;;;13.00;99.90;;;;;;5033899;28;20475;-81
2021/07/01 04:21:13;;;;;;;0.93;0.63;;;13.00;99.90;;;;;;5033963;28;20453;-81
2021/07/01 04:23:40;;;;;;;0.67;0.60;;;13.00;99.90;;;;;;5033579;28;20454;-81
2021/07/01 04:26:07;;;;;;;1.00;0.80;;;13.00;99.90;;;;;;5033820;28;20450;-81
2021/07/01 04:28:34;;;;;;;0.60;0.60;;;13.00;99.90;;;;;;5033773;28;20835;-81
2021/07/01 04:31:02;;;;;;;0.70;0.70;;;13.00;99.90;;;;;;5033525;28;20434;-81
2021/07/01 04:33:29;;;;;;;0.70;0.70;;;13.00;99.90;;;;;;5033711;28;20457;-81
2021/07/01 04:35:56;;;;;;;1.60;0.70;;;13.00;99.90;;;;;;5033618;28;20497;-81
2021/07/01 04:38:23;;;;;;;0.83;0.83;;;13.10;99.90;;;;;;5033314;28;21009;-81
2021/07/01 04:40:50;;;;;;;2.10;0.60;;;13.10;99.90;;;;;;5033520;28;20454;-81
2021/07/01 04:43:17;;;;;;;1.10;0.90;;;13.10;99.90;;;;;;5033618;28;20446;-81
2021/07/01 04:45:44;;;;;;;0.80;0.80;;;13.10;99.90;;;;;;5033124;28;20903;-81
2021/07/01 04:48:12;;;;;;;0.90;0.90;;;13.10;99.90;;;;;;5033449;28;20478;-81
2021/07/01 04:50:39;;;;;;;0.80;0.80;;;13.10;99.90;;;;;;5033524;28;20466;-81
2021/07/01 04:53:06;;;;;;;1.73;0.80;;;13.10;99.90;;;;;;5033429;28;20461;-81
2021/07/01 04:55:33;;;;;;;0.80;0.80;;;13.10;99.90;;;;;;5033057;28;20997;-81
2021/07/01 04:57:59;;;;;;;0.93;0.90;;;13.10;99.90;;;;;;5033314;28;20477;-80
2021/07/01 05:00:26;;;;;;;0.90;0.87;;;13.10;99.90;;;;;;5033224;28;20800;-81
2021/07/01 05:02:53;;;;;;;1.77;0.70;;;13.10;99.90;;;;;;5033336;28;20458;-81
2021/07/01 05:05:21;;;;;;;0.77;0.77;;;13.20;99.90;;;;;;5033250;28;20443;-81
2021/07/01 05:07:48;;;;;;;0.80;0.70;;;13.20;99.90;;;;;;5033254;28;20470;-81
2021/07/01 05:10:15;;;;;;;1.50;0.80;;;13.20;99.90;;;;;;5036284;28;20450;-81
2021/07/01 05:12:42;;;;;;;0.97;0.87;;;13.20;99.90;;;;;;5039795;28;20446;-81
2021/07/01 05:15:10;;;;;;;2.00;0.77;;;13.20;99.90;;;;;;5039722;28;20493;-81
2021/07/01 05:17:37;;;;;;;0.80;0.70;;;13.20;99.90;;;;;;5039795;28;20997;-81
2021/07/01 05:20:05;;;;;;;1.07;0.60;;;13.30;99.90;;;;;;5040065;28;20449;-82
2021/07/01 05:22:34;;;;;;;1.63;0.90;;;13.30;99.90;;;;;;5040069;28;20446;-81
2021/07/01 05:25:01;;;;;;;1.87;1.10;;;13.30;99.90;;;;;;5039462;28;20447;-81
2021/07/01 05:27:28;;;;;;;0.90;0.80;;;13.40;99.90;;;;;;5039668;28;20470;-81
2021/07/01 05:29:54;;;;;;;0.80;0.70;;;13.40;99.90;;;;;;5039674;28;20459;-81
2021/07/01 05:32:21;;;;;;;3.27;0.80;;;13.40;99.90;;;;;;5039670;28;20465;-81
2021/07/01 05:34:48;;;;;;;1.43;0.60;;;13.50;99.90;;;;;;5039547;28;20489;-81
2021/07/01 05:37:14;;;;;;;0.70;0.70;;;13.50;99.90;;;;;;5039603;28;20466;-81
2021/07/01 05:39:43;;;;;;;1.10;0.80;;;13.50;99.90;;;;;;5039346;28;20453;-82
2021/07/01 05:42:10;;;;;;;1.83;0.60;;;13.50;99.90;;;;;;5039274;28;20868;-82
2021/07/01 05:44:37;;;;;;;1.97;0.80;;;13.50;99.90;;;;;;5039406;28;20447;-81
2021/07/01 05:47:04;;;;;;;1.00;0.73;;;13.60;99.90;;;;;;5039498;28;20470;-82
2021/07/01 05:49:31;;;;;;;0.60;0.60;;;13.50;99.90;;;;;;5039530;28;20470;-81
2021/07/01 05:52:01;;;;;;;0.77;0.77;;;13.50;99.90;;;;;;5039523;28;20446;-82
2021/07/01 05:54:30;;;;;;;1.23;0.60;;;13.60;99.90;;;;;;5039735;28;20443;-82
2021/07/01 05:56:58;;;;;;;0.80;0.80;;;13.60;99.90;;;;;;5039351;28;20450;-82
2021/07/01 05:59:25;;;;;;;4.00;1.03;;;13.60;99.90;;;;;;5039459;28;20500;-80
2021/07/01 06:01:52;;;;;;;1.50;0.80;;;13.70;99.90;;;;;;5039427;28;20442;-80
2021/07/01 06:04:19;;;;;;;0.80;0.77;;;13.70;99.90;;;;;;5039222;28;20512;-80
2021/07/01 06:06:50;;;;;;;0.80;0.80;;;13.70;99.90;;;;;;5038989;28;20965;-80
2021/07/01 06:09:20;;;;;;;0.70;0.70;;;13.70;99.90;;;;;;5039082;28;20834;-80
2021/07/01 06:11:47;;;;;;;1.23;1.07;;;13.60;99.90;;;;;;5039051;28;20972;-80
2021/07/01 06:14:18;;;;;;;0.80;0.80;;;13.60;99.90;;;;;;5039127;28;20442;-80
2021/07/01 06:16:45;;;;;;;1.10;1.00;;;13.70;99.90;;;;;;5039128;28;20431;-80
2021/07/01 06:19:12;;;;;;;0.83;0.83;;;13.60;99.90;;;;;;5039277;28;20426;-80
2021/07/01 06:21:40;;;;;;;0.83;0.83;;;13.70;99.90;;;;;;5036377;28;20404;-80
2021/07/01 06:24:09;;;;;;;1.20;1.10;;;13.60;99.90;;;;;;5036177;28;20445;-81
2021/07/01 06:26:36;;;;;;;1.53;1.00;;;13.60;99.90;;;;;;5036128;28;20427;-81
2021/07/01 06:29:04;;;;;;;1.00;0.90;;;13.60;99.90;;;;;;5035740;28;20493;-80
2021/07/01 06:31:32;;;;;;;1.20;1.10;;;13.70;99.90;;;;;;5035716;28;20914;-81
2021/07/01 06:33:59;;;;;;;1.57;0.93;;;13.80;99.90;;;;;;5036754;28;20427;-80
2021/07/01 06:36:28;;;;;;;1.73;1.10;;;13.80;99.90;;;;;;5035542;28;20981;-80
2021/07/01 06:38:58;;;;;;;1.60;1.07;;;13.90;99.90;;;;;;5035839;28;20489;-81
2021/07/01 06:41:27;;;;;;;1.03;1.03;;;13.90;99.90;;;;;;5035607;28;20441;-81
2021/07/01 06:43:56;;;;;;;1.17;1.07;;;14.00;99.90;;;;;;5035863;28;20461;-81
2021/07/01 06:46:25;;;;;;;1.20;1.10;;;14.00;99.90;;;;;;5035369;28;20508;-81
2021/07/01 06:48:54;;;;;;;1.10;1.00;;;14.00;99.90;;;;;;5035652;28;20478;-81
2021/07/01 06:51:21;;;;;;;1.33;0.90;;;14.10;99.90;;;;;;5035663;28;20431;-81
2021/07/01 06:53:50;;;;;;;1.53;1.13;;;14.10;99.90;;;;;;5035556;28;20438;-81
2021/07/01 06:56:20;;;;;;;1.30;1.20;;;14.10;99.90;;;;;;5035444;28;20509;-81
2021/07/01 06:58:46;;;;;;;4.13;1.40;;;14.10;99.90;;;;;;5035114;28;20464;-81
2021/07/01 07:01:14;;;;;;;1.50;1.40;;;14.10;99.90;;;;;;5035643;28;20455;-81
2021/07/01 07:03:44;;;;;;;3.77;2.47;;;14.20;99.90;;;;;;5034967;28;20454;-81
2021/07/01 07:06:13;;;;;;;1.53;1.43;;;14.30;99.90;;;;;;5035381;28;20878;-81
2021/07/01 07:08:40;;;;;;;2.40;1.40;;;14.30;99.90;;;;;;5035247;28;20473;-81
2021/07/01 07:11:07;;;;;;;1.73;1.10;;;14.30;99.90;;;;;;5035022;28;20796;-82
2021/07/01 07:13:34;;;;;;;1.23;1.03;;;14.40;99.90;;;;;;5035126;28;20934;-82
2021/07/01 07:16:04;;;;;;;3.40;1.67;;;14.40;99.90;;;;;;5035050;28;20494;-82
2021/07/01 07:18:36;;;;;;;1.40;1.30;;;14.50;99.90;;;;;;5035410;28;20557;-82
2021/07/01 07:21:07;;;;;;;1.60;1.47;;;14.60;99.90;;;;;;5035121;28;20468;-82
2021/07/01 07:23:37;;;;;;;1.73;1.63;;;14.60;99.90;;;;;;5035068;28;20408;-82
2021/07/01 07:26:07;;;;;;;2.40;1.87;;;14.60;99.90;;;;;;5034963;28;20424;-82
2021/07/01 07:28:36;;;;;;;1.60;1.50;;;14.70;99.90;;;;;;5034821;28;20470;-82
2021/07/01 07:31:05;;;;;;;3.80;1.57;;;14.70;99.90;;;;;;5034838;28;20481;-82
2021/07/01 07:33:32;;;;;;;1.27;1.17;;;14.70;99.90;;;;;;5034459;28;20454;-81
2021/07/01 07:35:59;;;;;;;1.80;1.70;;;14.80;99.90;;;;;;5034714;28;21020;-84
2021/07/01 07:38:27;;;;;;;1.90;1.80;;;15.00;99.90;;;;;;5034319;28;20455;-82
2021/07/01 07:40:56;;;;;;;2.80;2.10;;;15.20;99.90;;;;;;5034579;28;20442;-82
2021/07/01 07:43:25;;;;;;;2.33;2.10;;;15.30;99.90;;;;;;5034552;28;20453;-82
2021/07/01 07:45:54;;;;;;;4.13;1.97;;;15.30;99.90;;;;;;5034115;28;20485;-81
2021/07/01 07:48:21;;;;;;;1.70;1.60;;;15.40;99.90;;;;;;5035032;28;20462;-83
2021/07/01 07:50:51;;;;;;;2.93;2.00;;;15.40;99.90;;;;;;5034211;28;20802;-83
2021/07/01 07:53:21;;;;;;;2.10;1.60;;;15.30;99.90;;;;;;5034436;28;20458;-82
2021/07/01 07:55:52;;;;;;;2.77;2.03;;;15.30;99.90;;;;;;5034028;28;20467;-82
2021/07/01 07:58:21;;;;;;;2.40;2.20;;;15.30;99.90;;;;;;5034280;28;20470;-82
2021/07/01 08:00:48;;;;;;;2.93;2.13;;;15.20;99.90;;;;;;5034242;28;20458;-82
2021/07/01 08:03:16;;;;;;;2.67;2.47;;;15.20;99.90;;;;;;5034678;28;20447;-82
2021/07/01 08:05:44;;;;;;;2.10;2.00;;;15.20;99.90;;;;;;5034288;28;20439;-82
2021/07/01 08:08:15;;;;;;;2.03;1.93;;;15.20;99.90;;;;;;5034181;28;20833;-82
2021/07/01 08:10:44;;;;;;;2.57;2.37;;;15.20;99.90;;;;;;5036888;28;20431;-82
2021/07/01 08:13:10;;;;;;;2.20;2.10;;;15.20;99.90;;;;;;5033832;28;20454;-82
2021/07/01 08:15:41;;;;;;;1.83;1.73;;;15.10;99.90;;;;;;5033679;28;21021;-82
2021/07/01 08:18:08;;;;;;;2.13;1.93;;;15.10;99.90;;;;;;5033424;28;20470;-82
2021/07/01 08:20:36;;;;;;;2.50;2.30;;;15.10;99.90;;;;;;5033991;28;20439;-82
2021/07/01 08:23:03;;;;;;;4.10;2.27;;;15.10;99.90;;;;;;5033597;28;20457;-82
2021/07/01 08:25:32;;;;;;;2.20;2.10;;;15.00;99.90;;;;;;5033906;28;20436;-83
2021/07/01 08:27:59;;;;;;;2.30;2.10;;;15.00;99.90;;;;;;5033967;28;20482;-82
2021/07/01 08:30:27;;;;;;;1.83;1.73;;;15.00;99.90;;;;;;5033830;28;20481;-83
2021/07/01 08:32:57;;;;;;;3.20;3.00;;;15.00;99.90;;;;;;5033828;28;20437;-82
2021/07/01 08:35:25;;;;;;;3.37;3.17;;;15.00;99.90;;;;;;5033699;28;20474;-82
2021/07/01 08:37:54;;;;;;;2.20;1.97;;;15.00;99.90;;;;;;5033617;28;20477;-82
2021/07/01 08:40:21;;;;;;;2.10;1.97;;;15.00;99.90;;;;;;5033601;28;20435;-82
2021/07/01 08:42:54;;;;;;;2.47;2.27;;;15.00;99.90;;;;;;5033647;28;20445;-82
2021/07/01 08:45:24;;;;;;;2.30;2.10;;;14.90;99.90;;;;;;5032579;28;20466;-82
2021/07/01 08:48:00;;;;;;;2.37;2.17;;;14.90;99.90;;;;;;5033470;28;20462;-82
2021/07/01 08:50:31;;;;;;;2.77;2.57;;;14.90;99.90;;;;;;5033528;28;20434;-82
2021/07/01 08:53:04;;;;;;;3.53;2.10;;;14.80;99.90;;;;;;5033721;28;20485;-81
2021/07/01 08:55:31;;;;;;;2.50;2.30;;;14.80;99.90;;;;;;5033512;28;20474;-81
2021/07/01 08:57:59;;;;;;;2.47;2.20;;;14.80;99.90;;;;;;5033377;28;20479;-81
2021/07/01 09:00:30;;;;;;;4.50;2.97;;;14.80;99.90;;;;;;5033555;28;20427;-81
2021/07/01 09:03:04;;;;;;;2.63;2.43;;;14.80;99.90;;;;;;5033691;28;20434;-81
2021/07/01 09:05:33;;;;;;;2.67;2.30;;;14.80;99.90;;;;;;5033451;28;20438;-81
2021/07/01 09:08:02;;;;;;;2.60;2.00;;;14.90;99.90;;;;;;5033275;28;20932;-83
2021/07/01 09:10:31;;;;;;;1.97;1.87;;;15.00;99.90;;;;;;5033270;28;20438;-82
2021/07/01 09:13:00;;;;;;;2.33;2.20;;;15.10;99.90;;;;;;5033660;28;20434;-76
2021/07/01 09:15:28;;;;;;;1.80;1.70;;;15.10;99.90;;;;;;5033157;28;20442;-76
2021/07/01 09:17:55;;;;;;;2.50;2.33;;;15.20;99.90;;;;;;5033151;28;20470;-76
2021/07/01 09:20:27;;;;;;;3.00;2.80;;;15.20;99.90;;;;;;5033152;28;20444;-76
2021/07/01 09:22:57;;;;;;;2.57;2.37;;;15.20;99.90;;;;;;5033122;28;20451;-76
2021/07/01 09:25:24;;;;;;;2.70;2.50;;;15.20;99.90;;;;;;5032796;28;20403;-76
2021/07/01 09:27:53;;;;;;;3.17;2.57;;;15.30;99.90;;;;;;5032583;28;20451;-76
2021/07/01 09:30:25;;;;;;;2.50;2.30;;;15.30;99.90;;;;;;5033522;28;20458;-76
2021/07/01 09:32:55;;;;;;;2.10;1.90;;;15.40;99.90;;;;;;5032846;28;20442;-76
2021/07/01 09:35:24;;;;;;;2.50;2.30;;;15.40;99.90;;;;;;5033239;28;20785;-76
2021/07/01 09:37:52;;;;;;;3.20;2.23;;;15.50;99.90;;;;;;5032961;28;20466;-76
2021/07/01 09:40:21;;;;;;;2.67;2.00;;;15.60;99.90;;;;;;5033050;28;20430;-76
2021/07/01 09:42:52;;;;;;;2.90;2.60;;;15.70;99.90;;;;;;5032974;28;20438;-76
2021/07/01 09:45:22;;;;;;;2.30;1.87;;;15.70;99.90;;;;;;5032751;28;20481;-77
2021/07/01 09:47:54;;;;;;;2.00;1.90;;;15.80;99.90;;;;;;5032942;28;20470;-77
2021/07/01 09:50:25;;;;;;;3.17;1.97;;;15.70;99.90;;;;;;5033153;28;20477;-77
2021/07/01 09:52:54;;;;;;;1.63;1.53;;;15.70;99.90;;;;;;5033339;28;20433;-78
2021/07/01 09:55:26;;;;;;;1.57;1.47;;;15.70;99.90;;;;;;5032632;28;20438;-78
2021/07/01 09:57:56;;;;;;;1.70;1.60;;;15.70;99.90;;;;;;5036235;28;20560;-78
2021/07/01 10:00:28;;;;;;;1.80;1.70;;;15.70;99.90;;;;;;5036993;28;20798;-83
2021/07/01 10:03:03;;;;;;;1.60;1.50;;;15.70;99.90;;;;;;5036609;28;20423;-83
2021/07/01 10:05:32;;;;;;;1.70;1.60;;;15.70;99.90;;;;;;5036769;28;20897;-83
2021/07/01 10:07:59;;;;;;;2.03;1.83;;;15.70;99.90;;;;;;5036694;28;20485;-83
2021/07/01 10:10:26;;;;;;;3.00;1.70;;;15.70;99.90;;;;;;5037575;28;20433;-83
2021/07/01 10:12:54;;;;;;;1.80;1.57;;;15.70;99.90;;;;;;5036337;28;20442;-83
2021/07/01 10:15:29;;;;;;;1.30;1.20;;;15.70;99.90;;;;;;5036298;28;20431;-83
2021/07/01 10:18:05;;;;;;;2.20;1.90;;;15.80;99.90;;;;;;5036049;28;20492;-83
2021/07/01 10:20:35;;;;;;;1.67;1.57;;;15.90;99.90;;;;;;5036264;28;20465;-83
2021/07/01 10:23:03;;;;;;;1.30;1.20;;;15.90;99.90;;;;;;5036257;28;20438;-83
2021/07/01 10:25:31;;;;;;;1.23;1.23;;;16.00;99.90;;;;;;5036215;28;20868;-83
2021/07/01 10:28:09;;;;;;;1.20;1.20;;;16.20;99.90;;;;;;5036074;28;20463;-83
2021/07/01 10:30:36;;;;;;;1.57;1.10;;;16.30;99.90;;;;;;5036291;28;20439;-84
2021/07/01 10:33:03;;;;;;;0.90;0.90;;;16.40;99.90;;;;;;5035846;28;20786;-84
2021/07/01 10:35:34;;;;;;;1.20;1.10;;;16.50;99.90;;;;;;5036306;28;20443;-84
2021/07/01 10:38:04;;;;;;;2.00;1.33;;;16.50;99.90;;;;;;5035808;28;20997;-83
2021/07/01 10:40:33;;;;;;;1.57;1.10;;;16.50;99.90;;;;;;5035945;28;20415;-84
2021/07/01 10:42:59;;;;;;;1.63;1.00;;;16.50;99.90;;;;;;5036090;28;20431;-84
2021/07/01 10:45:27;;;;;;;0.90;0.90;;;16.40;99.90;;;;;;5035571;28;20482;-87
2021/07/01 10:47:54;;;;;;;1.40;0.70;;;16.20;99.90;;;;;;5035874;28;20458;-84
2021/07/01 10:50:29;;;;;;;1.10;1.00;;;16.10;99.90;;;;;;5035759;28;20478;-84
2021/07/01 10:52:58;;;;;;;0.80;0.80;;;15.90;99.90;;;;;;5035704;28;20441;-83
2021/07/01 10:55:25;;;;;;;1.00;0.90;;;15.90;99.90;;;;;;5035713;28;20497;-82
2021/07/01 10:57:57;;;;;;;0.83;0.77;;;15.80;99.90;;;;;;5035701;28;20531;-84
2021/07/01 11:00:40;;;;;;;0.70;0.70;;;15.70;99.90;;;;;;5035574;28;20493;-84
2021/07/01 11:03:11;;;;;;;0.70;0.70;;;15.60;99.90;;;;;;5035770;28;20826;-83
2021/07/01 11:05:38;;;;;;;1.23;0.70;;;15.50;99.90;;;;;;5035105;28;20923;-82
2021/07/01 11:08:07;;;;;;;1.33;0.80;;;15.40;99.90;;;;;;5034689;28;20471;-84
2021/07/01 11:10:35;;;;;;;1.10;0.80;;;15.30;99.90;;;;;;5035057;28;20867;-84
2021/07/01 11:13:07;;;;;;;1.97;0.80;;;15.30;99.90;;;;;;5035290;28;20427;-84
2021/07/01 11:15:34;;;;;;;0.80;0.80;;;15.40;99.90;;;;;;5034964;28;20458;-84
2021/07/01 11:18:08;;;;;;;0.70;0.70;;;15.40;99.90;;;;;;5035321;28;20495;-84
2021/07/01 11:20:35;;;;;;;2.60;0.80;;;15.40;99.90;;;;;;5035100;28;20488;-84
2021/07/01 11:23:02;;;;;;;1.60;1.50;;;15.40;99.90;;;;;;5035012;28;20431;-83
2021/07/01 11:25:34;;;;;;;1.40;1.30;;;15.40;99.90;;;;;;5035725;28;20447;-83
2021/07/01 11:28:16;;;;;;;0.80;0.80;;;15.40;99.90;;;;;;5035140;28;20463;-84
2021/07/01 11:30:51;;;;;;;0.87;0.70;;;15.40;99.90;;;;;;5034900;28;20458;-83
2021/07/01 11:33:19;;;;;;;1.17;0.70;;;15.40;99.90;;;;;;5034892;28;20484;-84
2021/07/01 11:35:47;;;;;;;0.80;0.80;;;15.30;99.90;;;;;;5034978;28;20450;-83
2021/07/01 11:38:29;;;;;;;0.70;0.70;;;15.10;99.90;;;;;;5034269;28;21005;-83
2021/07/01 11:41:00;;;;;;;1.13;1.03;;;15.00;99.90;;;;;;5034761;28;20435;-82
2021/07/01 11:43:28;;;;;;;1.53;1.13;;;14.90;99.90;;;;;;5034789;28;20437;-83
2021/07/01 11:45:55;;;;;;;0.87;0.87;;;14.80;99.90;;;;;;5034464;28;20843;-83
2021/07/01 11:48:24;;;;;;;0.83;0.83;;;14.80;99.90;;;;;;5034746;28;20458;-83
2021/07/01 11:50:52;;;;;;;2.03;1.10;;;14.90;99.90;;;;;;5034602;28;20442;-82
2021/07/01 11:53:19;;;;;;;1.30;1.20;;;15.00;99.90;;;;;;5034613;28;20493;-82
2021/07/01 11:55:47;;;;;;;3.47;1.60;;;15.00;99.90;;;;;;5034246;28;20446;-82
2021/07/01 11:58:17;;;;;;;1.50;1.00;;;15.10;99.90;;;;;;5034266;28;20545;-82
2021/07/01 12:00:44;;;;;;;0.90;0.80;;;15.00;99.90;;;;;;5034308;28;20447;-82
2021/07/01 12:03:11;;;;;;;1.63;1.00;;;15.00;99.90;;;;;;5034324;28;20450;-82
2021/07/01 12:05:42;;;;;;;1.53;0.97;;;15.00;99.90;;;;;;5034210;28;20450;-82
2021/07/01 12:08:09;;;;;;;0.97;0.90;;;15.00;99.90;;;;;;5035883;28;20474;-83
2021/07/01 12:10:36;;;;;;;1.20;1.10;;;15.00;99.90;;;;;;5033909;28;20792;-84
2021/07/01 12:13:04;;;;;;;0.83;0.83;;;15.00;99.90;;;;;;5034107;28;20450;-83
2021/07/01 12:15:32;;;;;;;1.47;1.37;;;15.00;99.90;;;;;;5034069;28;20442;-84
2021/07/01 12:18:00;;;;;;;1.37;1.27;;;14.90;99.90;;;;;;5033576;28;20997;-84
2021/07/01 12:20:36;;;;;;;1.60;1.50;;;15.00;99.90;;;;;;5033251;28;20786;-83
2021/07/01 12:23:04;;;;;;;1.23;1.17;;;15.00;99.90;;;;;;5034005;28;20430;-83
2021/07/01 12:25:48;;;;;;;1.10;1.10;;;15.20;99.90;;;;;;5033695;28;20801;-83
2021/07/01 12:28:18;;;;;;;1.20;1.10;;;15.50;99.90;;;;;;5033477;28;20463;-83
2021/07/01 12:30:54;;;;;;;1.10;1.10;;;15.70;99.90;;;;;;5033878;28;20431;-83
2021/07/01 12:33:46;;;;;;;1.60;1.50;;;16.00;99.90;;;;;;5033799;28;20430;-83
2021/07/01 12:36:21;;;;;;;1.20;1.10;;;16.20;99.90;;;;;;5033789;28;20426;-83
2021/07/01 12:39:13;;;;;;;1.70;1.60;;;16.50;99.90;;;;;;5033725;28;20793;-84
2021/07/01 12:41:45;;;;;;;2.47;2.10;;;16.80;99.90;;;;;;5033927;28;20423;-83
2021/07/01 12:44:15;;;;;;;2.60;1.73;;;17.00;99.90;;;;;;5033651;28;20423;-83
2021/07/01 12:46:57;;;;;;;2.73;1.70;;;17.30;99.90;;;;;;5033337;28;20494;-84
2021/07/01 12:50:01;;;;;;;1.60;1.50;;;17.50;99.90;;;;;;5033599;28;20446;-84
2021/07/01 12:52:42;;;;;;;2.37;2.13;;;17.60;99.90;;;;;;5033547;28;20431;-84
2021/07/01 12:55:29;;;;;;;1.97;1.43;;;17.90;99.90;;;;;;5033481;28;20789;-83